Memphis, TN

7:38 PM CDT on September 24, 2016 (GMT -0500)
Midtown Memphis (OEM) | | Change Station

Elev 320 ft 35.13 °N, 89.97 °W | Updated 23 seconds ago

Scattered Clouds
Scattered Clouds
88.3 °F
Feels Like 93 °F
N
0.0
Wind Variable Wind from ESE
Gusts 7.0 mph

Today
High -- | Low -- °F
--% Chance of Precip.
Yesterday
High -- | Low -- °F
Precip. -- in
Pressure 29.98 in
Visibility 10.0 miles
Clouds Few 8000 ft
Scattered Clouds 25000 ft
Heat Index 93 °F
Dew Point 70 °F
Humidity 54%
Rainfall 0.00 in
Snow Depth Not available.
6:49 AM 6:52 PM
Waning Crescent, 33% visible
METAR KMEM 242354Z 13005KT 10SM FEW080 SCT250 33/18 A2999 RMK AO2 SLP151 T03280178 10361 20328 56006
Pressure 29.98 in
Visibility 10.0 miles
Clouds Few 8000 ft
Scattered Clouds 25000 ft
Heat Index 93 °F
Dew Point 70 °F
Humidity 54%
Rainfall 0.00 in
Snow Depth Not available.
6:49 AM 6:52 PM
Waning Crescent, 33% visible
METAR KMEM 242354Z 13005KT 10SM FEW080 SCT250 33/18 A2999 RMK AO2 SLP151 T03280178 10361 20328 56006

10-Day Weather Forecast

Almanac

Astronomy

Sep. 24, 2016 Rise Set
Actual Time
Civil Twilight
Nautical Twilight
Astronomical Twilight
Moon
Length of Visible Light
Length of Day
Tomorrow will be .
, % of the Moon is Illuminated

Today's Extremes

State Highs State Lows

Community

WunderPhotos

Upload Photos

1,941,501 photos uploaded!

WunderBlog® & News

Nearby

Air Quality

  Air Quality AQ Index Pollutant
Not available.

Snow Depth

Station Depth Elevation

Earthquake Activity

City Distance Mag. Time & Date
Minimum magnitude displayed is 2.5.

Coastal Water Temperatures

Place Temperature

Stations

Nearby Weather Stations

Station Location Temp. Windchill Dew Point Humidity Wind Precip. Elev Updated Type
                   

Watches & Warnings

There are currently no watches in effect.